sensor_id;sensor_type;location;lat;lon;timestamp;P1;durP1;ratioP1;P2;durP2;ratioP2
70924;SDS011;58577;52.410;13.242;2023-02-11T00:02:30;6.72;;;4.10;;
70924;SDS011;58577;52.410;13.242;2023-02-11T00:05:16;6.50;;;4.20;;
70924;SDS011;58577;52.410;13.242;2023-02-11T00:08:02;6.57;;;4.07;;
70924;SDS011;58577;52.410;13.242;2023-02-11T00:10:54;8.45;;;4.10;;
70924;SDS011;58577;52.410;13.242;2023-02-11T00:13:41;6.57;;;3.80;;
70924;SDS011;58577;52.410;13.242;2023-02-11T00:16:29;7.35;;;3.95;;
70924;SDS011;58577;52.410;13.242;2023-02-11T00:19:16;6.95;;;3.78;;
70924;SDS011;58577;52.410;13.242;2023-02-11T00:22:02;5.68;;;3.67;;
70924;SDS011;58577;52.410;13.242;2023-02-11T00:24:48;6.00;;;3.80;;
70924;SDS011;58577;52.410;13.242;2023-02-11T00:27:35;6.30;;;3.50;;
70924;SDS011;58577;52.410;13.242;2023-02-11T00:30:21;7.70;;;3.75;;
70924;SDS011;58577;52.410;13.242;2023-02-11T00:33:07;6.15;;;3.72;;
70924;SDS011;58577;52.410;13.242;2023-02-11T00:35:53;6.25;;;3.47;;
70924;SDS011;58577;52.410;13.242;2023-02-11T00:38:39;4.68;;;3.53;;
70924;SDS011;58577;52.410;13.242;2023-02-11T00:41:26;7.10;;;3.80;;
70924;SDS011;58577;52.410;13.242;2023-02-11T00:44:12;6.45;;;3.45;;
70924;SDS011;58577;52.410;13.242;2023-02-11T00:46:58;6.70;;;3.70;;
70924;SDS011;58577;52.410;13.242;2023-02-11T00:49:44;5.68;;;3.63;;
70924;SDS011;58577;52.410;13.242;2023-02-11T00:52:30;5.78;;;3.60;;
70924;SDS011;58577;52.410;13.242;2023-02-11T00:55:16;6.82;;;3.50;;
70924;SDS011;58577;52.410;13.242;2023-02-11T00:58:02;6.10;;;3.63;;
70924;SDS011;58577;52.410;13.242;2023-02-11T01:00:48;4.78;;;3.55;;
70924;SDS011;58577;52.410;13.242;2023-02-11T01:03:34;5.45;;;3.45;;
70924;SDS011;58577;52.410;13.242;2023-02-11T01:06:19;5.45;;;3.25;;
70924;SDS011;58577;52.410;13.242;2023-02-11T01:09:05;5.43;;;3.42;;
70924;SDS011;58577;52.410;13.242;2023-02-11T01:11:54;5.35;;;3.67;;
70924;SDS011;58577;52.410;13.242;2023-02-11T01:14:39;6.07;;;3.50;;
70924;SDS011;58577;52.410;13.242;2023-02-11T01:17:25;5.75;;;3.58;;
70924;SDS011;58577;52.410;13.242;2023-02-11T01:20:14;6.82;;;3.53;;
70924;SDS011;58577;52.410;13.242;2023-02-11T01:23:05;5.78;;;3.78;;
70924;SDS011;58577;52.410;13.242;2023-02-11T01:25:51;5.28;;;3.72;;
70924;SDS011;58577;52.410;13.242;2023-02-11T01:28:37;5.55;;;3.90;;
70924;SDS011;58577;52.410;13.242;2023-02-11T01:31:22;4.65;;;3.42;;
70924;SDS011;58577;52.410;13.242;2023-02-11T01:34:08;6.25;;;3.40;;
70924;SDS011;58577;52.410;13.242;2023-02-11T01:36:59;5.72;;;3.63;;
70924;SDS011;58577;52.410;13.242;2023-02-11T01:39:47;5.80;;;3.22;;
70924;SDS011;58577;52.410;13.242;2023-02-11T01:42:33;5.63;;;3.58;;
70924;SDS011;58577;52.410;13.242;2023-02-11T01:48:31;5.72;;;3.50;;
70924;SDS011;58577;52.410;13.242;2023-02-11T01:51:22;5.97;;;3.70;;
70924;SDS011;58577;52.410;13.242;2023-02-11T01:54:12;5.13;;;3.58;;
70924;SDS011;58577;52.410;13.242;2023-02-11T01:57:20;4.38;;;3.35;;
70924;SDS011;58577;52.410;13.242;2023-02-11T02:03:09;5.50;;;3.05;;
70924;SDS011;58577;52.410;13.242;2023-02-11T02:06:00;4.93;;;3.22;;
70924;SDS011;58577;52.410;13.242;2023-02-11T02:08:54;5.85;;;3.55;;
70924;SDS011;58577;52.410;13.242;2023-02-11T02:11:44;6.25;;;3.55;;
70924;SDS011;58577;52.410;13.242;2023-02-11T02:14:29;5.63;;;3.40;;
70924;SDS011;58577;52.410;13.242;2023-02-11T02:20:37;4.80;;;3.15;;
70924;SDS011;58577;52.410;13.242;2023-02-11T02:23:47;5.22;;;3.30;;
70924;SDS011;58577;52.410;13.242;2023-02-11T02:30:00;5.80;;;3.40;;
70924;SDS011;58577;52.410;13.242;2023-02-11T02:36:23;6.88;;;3.30;;
70924;SDS011;58577;52.410;13.242;2023-02-11T02:39:20;5.80;;;3.55;;
70924;SDS011;58577;52.410;13.242;2023-02-11T02:42:10;4.53;;;3.25;;
70924;SDS011;58577;52.410;13.242;2023-02-11T02:44:57;4.75;;;3.45;;
70924;SDS011;58577;52.410;13.242;2023-02-11T02:47:43;4.47;;;3.25;;
70924;SDS011;58577;52.410;13.242;2023-02-11T02:50:30;5.82;;;3.38;;
70924;SDS011;58577;52.410;13.242;2023-02-11T02:53:31;4.07;;;3.22;;
70924;SDS011;58577;52.410;13.242;2023-02-11T03:02:49;3.92;;;2.80;;
70924;SDS011;58577;52.410;13.242;2023-02-11T03:11:33;5.68;;;3.35;;
70924;SDS011;58577;52.410;13.242;2023-02-11T03:14:21;4.85;;;2.90;;
70924;SDS011;58577;52.410;13.242;2023-02-11T03:17:11;5.78;;;3.28;;
70924;SDS011;58577;52.410;13.242;2023-02-11T03:19:59;4.57;;;3.22;;
70924;SDS011;58577;52.410;13.242;2023-02-11T03:22:57;6.30;;;3.08;;
70924;SDS011;58577;52.410;13.242;2023-02-11T03:25:49;5.53;;;3.42;;
70924;SDS011;58577;52.410;13.242;2023-02-11T03:28:44;4.10;;;3.00;;
70924;SDS011;58577;52.410;13.242;2023-02-11T03:31:40;6.07;;;3.20;;
70924;SDS011;58577;52.410;13.242;2023-02-11T03:34:44;4.10;;;3.30;;
70924;SDS011;58577;52.410;13.242;2023-02-11T03:37:41;4.90;;;3.30;;
70924;SDS011;58577;52.410;13.242;2023-02-11T03:40:36;5.47;;;3.10;;
70924;SDS011;58577;52.410;13.242;2023-02-11T03:43:34;4.90;;;3.30;;
70924;SDS011;58577;52.410;13.242;2023-02-11T03:46:29;4.18;;;2.92;;
70924;SDS011;58577;52.410;13.242;2023-02-11T03:49:19;4.85;;;3.20;;
70924;SDS011;58577;52.410;13.242;2023-02-11T03:52:06;4.95;;;3.42;;
70924;SDS011;58577;52.410;13.242;2023-02-11T03:54:56;4.03;;;3.03;;
70924;SDS011;58577;52.410;13.242;2023-02-11T03:57:45;4.85;;;3.05;;
70924;SDS011;58577;52.410;13.242;2023-02-11T04:00:33;4.22;;;2.92;;
70924;SDS011;58577;52.410;13.242;2023-02-11T04:03:21;4.60;;;3.22;;
70924;SDS011;58577;52.410;13.242;2023-02-11T04:06:06;4.35;;;3.08;;
70924;SDS011;58577;52.410;13.242;2023-02-11T04:08:53;3.60;;;2.90;;
70924;SDS011;58577;52.410;13.242;2023-02-11T04:11:38;3.85;;;2.90;;
70924;SDS011;58577;52.410;13.242;2023-02-11T04:14:24;5.40;;;3.10;;
70924;SDS011;58577;52.410;13.242;2023-02-11T04:17:10;3.28;;;2.80;;
70924;SDS011;58577;52.410;13.242;2023-02-11T04:19:56;5.07;;;3.35;;
70924;SDS011;58577;52.410;13.242;2023-02-11T04:22:42;3.55;;;2.78;;
70924;SDS011;58577;52.410;13.242;2023-02-11T04:25:28;4.07;;;2.90;;
70924;SDS011;58577;52.410;13.242;2023-02-11T04:28:14;3.72;;;2.90;;
70924;SDS011;58577;52.410;13.242;2023-02-11T04:31:00;3.60;;;2.92;;
70924;SDS011;58577;52.410;13.242;2023-02-11T04:33:45;4.13;;;2.78;;
70924;SDS011;58577;52.410;13.242;2023-02-11T04:36:31;3.15;;;2.80;;
70924;SDS011;58577;52.410;13.242;2023-02-11T04:39:17;3.75;;;2.90;;
70924;SDS011;58577;52.410;13.242;2023-02-11T04:42:03;3.58;;;2.75;;
70924;SDS011;58577;52.410;13.242;2023-02-11T04:44:49;3.88;;;3.05;;
70924;SDS011;58577;52.410;13.242;2023-02-11T04:47:35;3.92;;;2.72;;
70924;SDS011;58577;52.410;13.242;2023-02-11T04:50:22;4.55;;;3.03;;
70924;SDS011;58577;52.410;13.242;2023-02-11T04:53:08;3.75;;;2.67;;
70924;SDS011;58577;52.410;13.242;2023-02-11T04:55:53;4.03;;;2.78;;
70924;SDS011;58577;52.410;13.242;2023-02-11T04:58:39;4.28;;;3.13;;
70924;SDS011;58577;52.410;13.242;2023-02-11T05:01:25;4.70;;;2.90;;
70924;SDS011;58577;52.410;13.242;2023-02-11T05:04:11;2.95;;;2.47;;
70924;SDS011;58577;52.410;13.242;2023-02-11T05:06:57;4.63;;;2.95;;
70924;SDS011;58577;52.410;13.242;2023-02-11T05:09:42;4.05;;;2.80;;
70924;SDS011;58577;52.410;13.242;2023-02-11T05:12:28;4.10;;;2.90;;
70924;SDS011;58577;52.410;13.242;2023-02-11T05:15:14;4.78;;;3.20;;
70924;SDS011;58577;52.410;13.242;2023-02-11T05:18:00;3.13;;;2.55;;
70924;SDS011;58577;52.410;13.242;2023-02-11T05:20:46;2.75;;;2.55;;
70924;SDS011;58577;52.410;13.242;2023-02-11T05:23:32;3.45;;;2.83;;
70924;SDS011;58577;52.410;13.242;2023-02-11T05:26:18;3.00;;;2.67;;
70924;SDS011;58577;52.410;13.242;2023-02-11T05:29:04;4.15;;;2.67;;
70924;SDS011;58577;52.410;13.242;2023-02-11T05:31:50;3.75;;;2.70;;
70924;SDS011;58577;52.410;13.242;2023-02-11T05:34:35;3.00;;;2.70;;
70924;SDS011;58577;52.410;13.242;2023-02-11T05:37:22;3.42;;;2.75;;
70924;SDS011;58577;52.410;13.242;2023-02-11T05:40:07;4.38;;;2.88;;
70924;SDS011;58577;52.410;13.242;2023-02-11T05:42:54;4.47;;;2.60;;
70924;SDS011;58577;52.410;13.242;2023-02-11T05:45:39;3.22;;;2.60;;
70924;SDS011;58577;52.410;13.242;2023-02-11T05:48:25;3.00;;;2.50;;
70924;SDS011;58577;52.410;13.242;2023-02-11T05:51:11;3.67;;;2.72;;
70924;SDS011;58577;52.410;13.242;2023-02-11T05:53:57;3.78;;;2.60;;
70924;SDS011;58577;52.410;13.242;2023-02-11T05:56:42;3.58;;;2.80;;
70924;SDS011;58577;52.410;13.242;2023-02-11T05:59:28;4.50;;;2.88;;
70924;SDS011;58577;52.410;13.242;2023-02-11T06:02:14;3.08;;;2.65;;
70924;SDS011;58577;52.410;13.242;2023-02-11T06:05:00;3.47;;;2.75;;
70924;SDS011;58577;52.410;13.242;2023-02-11T06:07:45;3.72;;;2.65;;
70924;SDS011;58577;52.410;13.242;2023-02-11T06:10:31;3.33;;;2.65;;
70924;SDS011;58577;52.410;13.242;2023-02-11T06:13:17;3.33;;;2.50;;
70924;SDS011;58577;52.410;13.242;2023-02-11T06:16:04;3.05;;;2.60;;
70924;SDS011;58577;52.410;13.242;2023-02-11T06:18:49;3.15;;;2.47;;
70924;SDS011;58577;52.410;13.242;2023-02-11T06:21:35;3.65;;;2.70;;
70924;SDS011;58577;52.410;13.242;2023-02-11T06:24:21;3.83;;;2.63;;
70924;SDS011;58577;52.410;13.242;2023-02-11T06:27:07;2.60;;;2.40;;
70924;SDS011;58577;52.410;13.242;2023-02-11T06:29:53;3.10;;;2.65;;
70924;SDS011;58577;52.410;13.242;2023-02-11T06:32:39;4.72;;;2.90;;
70924;SDS011;58577;52.410;13.242;2023-02-11T06:35:25;2.95;;;2.60;;
70924;SDS011;58577;52.410;13.242;2023-02-11T06:38:10;2.90;;;2.50;;
70924;SDS011;58577;52.410;13.242;2023-02-11T06:40:56;3.67;;;2.85;;
70924;SDS011;58577;52.410;13.242;2023-02-11T06:43:42;3.55;;;2.95;;
70924;SDS011;58577;52.410;13.242;2023-02-11T06:46:28;3.95;;;2.85;;
70924;SDS011;58577;52.410;13.242;2023-02-11T06:49:13;4.20;;;2.80;;
70924;SDS011;58577;52.410;13.242;2023-02-11T06:51:59;3.08;;;2.70;;
70924;SDS011;58577;52.410;13.242;2023-02-11T06:54:45;2.95;;;2.50;;
70924;SDS011;58577;52.410;13.242;2023-02-11T06:57:31;4.00;;;3.03;;
70924;SDS011;58577;52.410;13.242;2023-02-11T07:00:17;2.97;;;2.40;;
70924;SDS011;58577;52.410;13.242;2023-02-11T07:03:03;3.65;;;3.10;;
70924;SDS011;58577;52.410;13.242;2023-02-11T07:05:49;3.20;;;2.50;;
70924;SDS011;58577;52.410;13.242;2023-02-11T07:08:36;2.67;;;2.35;;
70924;SDS011;58577;52.410;13.242;2023-02-11T07:11:23;3.67;;;3.00;;
70924;SDS011;58577;52.410;13.242;2023-02-11T07:14:10;3.58;;;2.67;;
70924;SDS011;58577;52.410;13.242;2023-02-11T07:16:57;3.85;;;2.65;;
70924;SDS011;58577;52.410;13.242;2023-02-11T07:19:43;3.95;;;2.70;;
70924;SDS011;58577;52.410;13.242;2023-02-11T07:22:29;4.40;;;2.80;;
70924;SDS011;58577;52.410;13.242;2023-02-11T07:25:15;3.30;;;2.72;;
70924;SDS011;58577;52.410;13.242;2023-02-11T07:28:01;3.90;;;2.90;;
70924;SDS011;58577;52.410;13.242;2023-02-11T07:30:48;2.85;;;2.60;;
70924;SDS011;58577;52.410;13.242;2023-02-11T07:33:34;3.00;;;2.60;;
70924;SDS011;58577;52.410;13.242;2023-02-11T07:36:21;3.03;;;2.50;;
70924;SDS011;58577;52.410;13.242;2023-02-11T07:39:07;3.42;;;2.47;;
70924;SDS011;58577;52.410;13.242;2023-02-11T07:41:53;3.45;;;2.70;;
70924;SDS011;58577;52.410;13.242;2023-02-11T07:44:39;2.88;;;2.53;;
70924;SDS011;58577;52.410;13.242;2023-02-11T07:47:25;2.97;;;2.67;;
70924;SDS011;58577;52.410;13.242;2023-02-11T07:50:10;3.65;;;2.80;;
70924;SDS011;58577;52.410;13.242;2023-02-11T07:52:56;3.25;;;2.70;;
70924;SDS011;58577;52.410;13.242;2023-02-11T07:55:42;3.45;;;2.85;;
70924;SDS011;58577;52.410;13.242;2023-02-11T07:58:28;3.08;;;2.63;;
70924;SDS011;58577;52.410;13.242;2023-02-11T08:01:19;3.22;;;2.60;;
70924;SDS011;58577;52.410;13.242;2023-02-11T08:04:09;2.90;;;2.50;;
70924;SDS011;58577;52.410;13.242;2023-02-11T08:06:55;3.17;;;2.70;;
70924;SDS011;58577;52.410;13.242;2023-02-11T08:09:41;32.63;;;18.70;;
70924;SDS011;58577;52.410;13.242;2023-02-11T08:12:27;39.20;;;21.55;;
70924;SDS011;58577;52.410;13.242;2023-02-11T08:15:13;38.55;;;22.27;;
70924;SDS011;58577;52.410;13.242;2023-02-11T08:18:02;36.08;;;20.17;;
70924;SDS011;58577;52.410;13.242;2023-02-11T08:20:48;36.35;;;20.35;;
70924;SDS011;58577;52.410;13.242;2023-02-11T08:23:40;37.22;;;19.80;;
70924;SDS011;58577;52.410;13.242;2023-02-11T08:26:28;32.50;;;17.35;;
70924;SDS011;58577;52.410;13.242;2023-02-11T08:29:16;32.15;;;17.25;;
70924;SDS011;58577;52.410;13.242;2023-02-11T08:32:02;32.20;;;16.23;;
70924;SDS011;58577;52.410;13.242;2023-02-11T08:34:51;26.58;;;15.07;;
70924;SDS011;58577;52.410;13.242;2023-02-11T08:37:37;27.38;;;14.48;;
70924;SDS011;58577;52.410;13.242;2023-02-11T08:40:23;24.50;;;13.40;;
70924;SDS011;58577;52.410;13.242;2023-02-11T08:43:09;22.52;;;12.73;;
70924;SDS011;58577;52.410;13.242;2023-02-11T08:45:55;24.25;;;12.90;;
70924;SDS011;58577;52.410;13.242;2023-02-11T08:48:41;26.58;;;12.88;;
70924;SDS011;58577;52.410;13.242;2023-02-11T08:51:28;21.02;;;11.57;;
70924;SDS011;58577;52.410;13.242;2023-02-11T08:54:17;21.17;;;11.77;;
70924;SDS011;58577;52.410;13.242;2023-02-11T08:57:03;21.10;;;11.07;;
70924;SDS011;58577;52.410;13.242;2023-02-11T08:59:49;19.27;;;10.48;;
70924;SDS011;58577;52.410;13.242;2023-02-11T09:02:35;18.73;;;9.85;;
70924;SDS011;58577;52.410;13.242;2023-02-11T09:05:21;19.23;;;9.93;;
70924;SDS011;58577;52.410;13.242;2023-02-11T09:08:07;17.25;;;9.15;;
70924;SDS011;58577;52.410;13.242;2023-02-11T09:10:55;17.17;;;8.88;;
70924;SDS011;58577;52.410;13.242;2023-02-11T09:13:41;16.08;;;9.10;;
70924;SDS011;58577;52.410;13.242;2023-02-11T09:16:29;16.73;;;8.95;;
70924;SDS011;58577;52.410;13.242;2023-02-11T09:19:18;15.70;;;8.10;;
70924;SDS011;58577;52.410;13.242;2023-02-11T09:22:04;16.30;;;7.57;;
70924;SDS011;58577;52.410;13.242;2023-02-11T09:24:50;16.45;;;7.97;;
70924;SDS011;58577;52.410;13.242;2023-02-11T09:27:35;14.52;;;7.72;;
70924;SDS011;58577;52.410;13.242;2023-02-11T09:30:21;13.73;;;7.70;;
70924;SDS011;58577;52.410;13.242;2023-02-11T09:33:07;15.60;;;7.85;;
70924;SDS011;58577;52.410;13.242;2023-02-11T09:35:53;13.80;;;7.30;;
70924;SDS011;58577;52.410;13.242;2023-02-11T09:38:39;13.15;;;7.32;;
70924;SDS011;58577;52.410;13.242;2023-02-11T09:44:21;13.85;;;6.88;;
70924;SDS011;58577;52.410;13.242;2023-02-11T09:47:24;14.07;;;7.00;;
70924;SDS011;58577;52.410;13.242;2023-02-11T09:50:13;13.02;;;6.38;;
70924;SDS011;58577;52.410;13.242;2023-02-11T09:55:52;10.43;;;6.30;;
70924;SDS011;58577;52.410;13.242;2023-02-11T09:58:41;9.45;;;6.35;;
70924;SDS011;58577;52.410;13.242;2023-02-11T10:04:31;12.85;;;6.20;;
70924;SDS011;58577;52.410;13.242;2023-02-11T10:07:37;11.57;;;5.85;;
70924;SDS011;58577;52.410;13.242;2023-02-11T10:13:32;11.00;;;5.97;;
70924;SDS011;58577;52.410;13.242;2023-02-11T10:16:41;9.95;;;5.82;;
70924;SDS011;58577;52.410;13.242;2023-02-11T10:19:49;11.38;;;6.05;;
70924;SDS011;58577;52.410;13.242;2023-02-11T10:25:44;10.88;;;5.65;;
70924;SDS011;58577;52.410;13.242;2023-02-11T10:28:33;9.82;;;5.70;;
70924;SDS011;58577;52.410;13.242;2023-02-11T10:31:54;9.65;;;5.30;;
70924;SDS011;58577;52.410;13.242;2023-02-11T10:34:37;10.38;;;5.57;;
70924;SDS011;58577;52.410;13.242;2023-02-11T10:37:26;10.05;;;5.45;;
70924;SDS011;58577;52.410;13.242;2023-02-11T10:40:13;9.82;;;5.55;;
70924;SDS011;58577;52.410;13.242;2023-02-11T10:43:05;7.47;;;4.93;;
70924;SDS011;58577;52.410;13.242;2023-02-11T10:45:56;9.07;;;5.10;;
70924;SDS011;58577;52.410;13.242;2023-02-11T10:48:44;9.40;;;5.38;;
70924;SDS011;58577;52.410;13.242;2023-02-11T10:51:33;9.10;;;5.10;;
70924;SDS011;58577;52.410;13.242;2023-02-11T10:54:19;9.88;;;5.50;;
70924;SDS011;58577;52.410;13.242;2023-02-11T10:57:06;10.50;;;5.30;;
70924;SDS011;58577;52.410;13.242;2023-02-11T11:00:48;9.95;;;5.65;;
70924;SDS011;58577;52.410;13.242;2023-02-11T11:03:22;10.40;;;5.50;;
70924;SDS011;58577;52.410;13.242;2023-02-11T11:06:10;8.88;;;5.20;;
70924;SDS011;58577;52.410;13.242;2023-02-11T11:08:56;10.10;;;5.00;;
70924;SDS011;58577;52.410;13.242;2023-02-11T11:11:49;9.48;;;5.30;;
70924;SDS011;58577;52.410;13.242;2023-02-11T11:14:38;9.00;;;5.05;;
70924;SDS011;58577;52.410;13.242;2023-02-11T11:17:24;9.13;;;4.80;;
70924;SDS011;58577;52.410;13.242;2023-02-11T11:23:18;7.68;;;4.80;;
70924;SDS011;58577;52.410;13.242;2023-02-11T11:26:11;9.07;;;4.68;;
70924;SDS011;58577;52.410;13.242;2023-02-11T11:28:59;7.50;;;4.93;;
70924;SDS011;58577;52.410;13.242;2023-02-11T11:32:02;9.02;;;4.75;;
70924;SDS011;58577;52.410;13.242;2023-02-11T11:34:58;7.40;;;4.28;;
70924;SDS011;58577;52.410;13.242;2023-02-11T11:41:15;7.60;;;4.53;;
70924;SDS011;58577;52.410;13.242;2023-02-11T11:44:15;8.82;;;4.80;;
70924;SDS011;58577;52.410;13.242;2023-02-11T11:50:09;7.75;;;4.60;;
70924;SDS011;58577;52.410;13.242;2023-02-11T11:55:46;8.40;;;4.53;;
70924;SDS011;58577;52.410;13.242;2023-02-11T11:58:37;7.43;;;4.50;;
70924;SDS011;58577;52.410;13.242;2023-02-11T12:01:33;8.10;;;4.90;;
70924;SDS011;58577;52.410;13.242;2023-02-11T12:04:42;8.68;;;4.63;;
70924;SDS011;58577;52.410;13.242;2023-02-11T12:10:49;8.75;;;5.22;;
70924;SDS011;58577;52.410;13.242;2023-02-11T12:16:48;8.55;;;5.03;;
70924;SDS011;58577;52.410;13.242;2023-02-11T12:19:53;6.97;;;4.18;;
70924;SDS011;58577;52.410;13.242;2023-02-11T12:23:02;7.57;;;4.25;;
70924;SDS011;58577;52.410;13.242;2023-02-11T12:26:18;8.40;;;4.68;;
70924;SDS011;58577;52.410;13.242;2023-02-11T12:29:12;8.48;;;4.57;;
70924;SDS011;58577;52.410;13.242;2023-02-11T12:32:26;7.00;;;4.47;;
70924;SDS011;58577;52.410;13.242;2023-02-11T12:35:34;7.45;;;4.45;;
70924;SDS011;58577;52.410;13.242;2023-02-11T12:47:59;6.07;;;4.18;;
70924;SDS011;58577;52.410;13.242;2023-02-11T12:56:55;6.90;;;4.10;;
70924;SDS011;58577;52.410;13.242;2023-02-11T13:02:43;5.57;;;3.78;;
70924;SDS011;58577;52.410;13.242;2023-02-11T13:05:59;7.00;;;4.40;;
70924;SDS011;58577;52.410;13.242;2023-02-11T13:09:13;6.05;;;4.30;;
70924;SDS011;58577;52.410;13.242;2023-02-11T13:12:12;5.90;;;4.03;;
70924;SDS011;58577;52.410;13.242;2023-02-11T13:15:17;6.78;;;4.03;;
70924;SDS011;58577;52.410;13.242;2023-02-11T13:41:40;7.57;;;3.75;;
70924;SDS011;58577;52.410;13.242;2023-02-11T13:44:26;6.72;;;3.88;;
70924;SDS011;58577;52.410;13.242;2023-02-11T13:47:21;7.00;;;3.90;;
70924;SDS011;58577;52.410;13.242;2023-02-11T13:53:09;6.95;;;3.88;;
70924;SDS011;58577;52.410;13.242;2023-02-11T13:56:06;5.32;;;3.72;;
70924;SDS011;58577;52.410;13.242;2023-02-11T13:58:54;6.57;;;3.80;;
70924;SDS011;58577;52.410;13.242;2023-02-11T14:05:18;5.40;;;3.60;;
70924;SDS011;58577;52.410;13.242;2023-02-11T14:08:23;5.15;;;3.42;;
70924;SDS011;58577;52.410;13.242;2023-02-11T14:14:24;4.70;;;3.30;;
70924;SDS011;58577;52.410;13.242;2023-02-11T14:17:16;5.03;;;3.65;;
70924;SDS011;58577;52.410;13.242;2023-02-11T14:20:03;5.25;;;3.67;;
70924;SDS011;58577;52.410;13.242;2023-02-11T14:23:20;6.30;;;3.67;;
70924;SDS011;58577;52.410;13.242;2023-02-11T14:35:32;5.32;;;3.40;;
70924;SDS011;58577;52.410;13.242;2023-02-11T14:38:32;6.22;;;3.42;;
70924;SDS011;58577;52.410;13.242;2023-02-11T14:41:21;4.65;;;3.13;;
70924;SDS011;58577;52.410;13.242;2023-02-11T14:44:28;4.63;;;3.45;;
70924;SDS011;58577;52.410;13.242;2023-02-11T14:47:22;4.68;;;3.20;;
70924;SDS011;58577;52.410;13.242;2023-02-11T14:50:26;4.85;;;3.40;;
70924;SDS011;58577;52.410;13.242;2023-02-11T14:53:21;10.48;;;5.68;;
70924;SDS011;58577;52.410;13.242;2023-02-11T14:56:16;7.35;;;3.55;;
70924;SDS011;58577;52.410;13.242;2023-02-11T14:59:20;4.95;;;3.30;;
70924;SDS011;58577;52.410;13.242;2023-02-11T15:02:21;9.40;;;4.03;;
70924;SDS011;58577;52.410;13.242;2023-02-11T15:05:16;7.55;;;3.70;;
70924;SDS011;58577;52.410;13.242;2023-02-11T15:08:03;8.88;;;5.10;;
70924;SDS011;58577;52.410;13.242;2023-02-11T15:10:49;13.88;;;5.72;;
70924;SDS011;58577;52.410;13.242;2023-02-11T15:13:38;14.60;;;6.50;;
70924;SDS011;58577;52.410;13.242;2023-02-11T15:16:28;12.25;;;5.10;;
70924;SDS011;58577;52.410;13.242;2023-02-11T15:19:36;11.07;;;4.80;;
70924;SDS011;58577;52.410;13.242;2023-02-11T15:22:29;14.00;;;6.80;;
70924;SDS011;58577;52.410;13.242;2023-02-11T15:25:21;13.70;;;7.55;;
70924;SDS011;58577;52.410;13.242;2023-02-11T15:28:18;13.70;;;7.43;;
70924;SDS011;58577;52.410;13.242;2023-02-11T15:31:14;18.15;;;8.80;;
70924;SDS011;58577;52.410;13.242;2023-02-11T15:34:05;14.73;;;7.72;;
70924;SDS011;58577;52.410;13.242;2023-02-11T15:36:52;14.27;;;7.53;;
70924;SDS011;58577;52.410;13.242;2023-02-11T15:39:39;16.02;;;6.43;;
70924;SDS011;58577;52.410;13.242;2023-02-11T15:42:27;13.13;;;6.45;;
70924;SDS011;58577;52.410;13.242;2023-02-11T15:48:20;10.40;;;5.38;;
70924;SDS011;58577;52.410;13.242;2023-02-11T15:54:15;8.20;;;4.30;;
70924;SDS011;58577;52.410;13.242;2023-02-11T15:57:05;8.73;;;4.13;;
70924;SDS011;58577;52.410;13.242;2023-02-11T15:59:54;7.80;;;3.80;;
70924;SDS011;58577;52.410;13.242;2023-02-11T16:02:43;7.32;;;3.72;;
70924;SDS011;58577;52.410;13.242;2023-02-11T16:05:31;7.78;;;3.78;;
70924;SDS011;58577;52.410;13.242;2023-02-11T16:08:28;7.50;;;3.80;;
70924;SDS011;58577;52.410;13.242;2023-02-11T16:11:17;7.65;;;3.75;;
70924;SDS011;58577;52.410;13.242;2023-02-11T16:17:24;6.25;;;3.05;;
70924;SDS011;58577;52.410;13.242;2023-02-11T16:20:17;6.30;;;3.25;;
70924;SDS011;58577;52.410;13.242;2023-02-11T16:23:04;6.15;;;3.28;;
70924;SDS011;58577;52.410;13.242;2023-02-11T16:25:54;6.90;;;3.72;;
70924;SDS011;58577;52.410;13.242;2023-02-11T16:29:00;4.03;;;2.97;;
70924;SDS011;58577;52.410;13.242;2023-02-11T16:31:51;7.05;;;3.30;;
70924;SDS011;58577;52.410;13.242;2023-02-11T16:34:39;5.63;;;2.92;;
70924;SDS011;58577;52.410;13.242;2023-02-11T16:37:24;4.07;;;2.63;;
70924;SDS011;58577;52.410;13.242;2023-02-11T16:40:11;6.85;;;3.00;;
70924;SDS011;58577;52.410;13.242;2023-02-11T16:42:57;5.03;;;2.90;;
70924;SDS011;58577;52.410;13.242;2023-02-11T16:45:43;4.20;;;2.95;;
70924;SDS011;58577;52.410;13.242;2023-02-11T16:48:29;4.93;;;2.80;;
70924;SDS011;58577;52.410;13.242;2023-02-11T16:51:15;4.97;;;2.90;;
70924;SDS011;58577;52.410;13.242;2023-02-11T16:54:01;4.90;;;2.90;;
70924;SDS011;58577;52.410;13.242;2023-02-11T16:56:46;10.45;;;3.97;;
70924;SDS011;58577;52.410;13.242;2023-02-11T16:59:32;16.25;;;6.10;;
70924;SDS011;58577;52.410;13.242;2023-02-11T17:02:22;17.90;;;7.65;;
70924;SDS011;58577;52.410;13.242;2023-02-11T17:05:15;21.63;;;8.02;;
70924;SDS011;58577;52.410;13.242;2023-02-11T17:08:03;18.88;;;7.05;;
70924;SDS011;58577;52.410;13.242;2023-02-11T17:10:50;17.35;;;7.40;;
70924;SDS011;58577;52.410;13.242;2023-02-11T17:13:36;18.80;;;6.72;;
70924;SDS011;58577;52.410;13.242;2023-02-11T17:16:23;15.23;;;7.28;;
70924;SDS011;58577;52.410;13.242;2023-02-11T17:19:13;19.85;;;7.03;;
70924;SDS011;58577;52.410;13.242;2023-02-11T17:22:01;15.15;;;6.88;;
70924;SDS011;58577;52.410;13.242;2023-02-11T17:24:47;17.95;;;7.32;;
70924;SDS011;58577;52.410;13.242;2023-02-11T17:27:33;15.30;;;6.43;;
70924;SDS011;58577;52.410;13.242;2023-02-11T17:30:19;14.15;;;6.68;;
70924;SDS011;58577;52.410;13.242;2023-02-11T17:33:07;14.27;;;6.00;;
70924;SDS011;58577;52.410;13.242;2023-02-11T17:35:53;12.93;;;5.80;;
70924;SDS011;58577;52.410;13.242;2023-02-11T17:38:39;12.45;;;5.35;;
70924;SDS011;58577;52.410;13.242;2023-02-11T17:41:25;12.27;;;5.22;;
70924;SDS011;58577;52.410;13.242;2023-02-11T17:44:11;10.38;;;4.60;;
70924;SDS011;58577;52.410;13.242;2023-02-11T17:46:58;8.23;;;4.45;;
70924;SDS011;58577;52.410;13.242;2023-02-11T17:49:44;12.05;;;4.80;;
70924;SDS011;58577;52.410;13.242;2023-02-11T17:52:30;12.65;;;4.85;;
70924;SDS011;58577;52.410;13.242;2023-02-11T17:55:15;11.90;;;4.70;;
70924;SDS011;58577;52.410;13.242;2023-02-11T17:58:01;10.77;;;4.55;;
70924;SDS011;58577;52.410;13.242;2023-02-11T18:00:47;10.10;;;4.40;;
70924;SDS011;58577;52.410;13.242;2023-02-11T18:03:33;11.18;;;4.28;;
70924;SDS011;58577;52.410;13.242;2023-02-11T18:06:19;6.97;;;4.03;;
70924;SDS011;58577;52.410;13.242;2023-02-11T18:09:05;12.10;;;4.38;;
70924;SDS011;58577;52.410;13.242;2023-02-11T18:11:51;9.73;;;4.07;;
70924;SDS011;58577;52.410;13.242;2023-02-11T18:14:40;9.65;;;4.22;;
70924;SDS011;58577;52.410;13.242;2023-02-11T18:17:26;11.18;;;4.13;;
70924;SDS011;58577;52.410;13.242;2023-02-11T18:20:11;8.48;;;4.00;;
70924;SDS011;58577;52.410;13.242;2023-02-11T18:22:57;9.60;;;3.85;;
70924;SDS011;58577;52.410;13.242;2023-02-11T18:25:43;9.80;;;3.83;;
70924;SDS011;58577;52.410;13.242;2023-02-11T18:28:29;7.45;;;3.80;;
70924;SDS011;58577;52.410;13.242;2023-02-11T18:31:15;8.80;;;3.88;;
70924;SDS011;58577;52.410;13.242;2023-02-11T18:34:02;8.45;;;4.40;;
70924;SDS011;58577;52.410;13.242;2023-02-11T18:36:50;6.75;;;3.70;;
70924;SDS011;58577;52.410;13.242;2023-02-11T18:39:36;8.07;;;4.00;;
70924;SDS011;58577;52.410;13.242;2023-02-11T18:42:22;8.48;;;3.80;;
70924;SDS011;58577;52.410;13.242;2023-02-11T18:45:08;10.25;;;3.67;;
70924;SDS011;58577;52.410;13.242;2023-02-11T18:47:56;8.83;;;4.17;;
70924;SDS011;58577;52.410;13.242;2023-02-11T18:50:45;7.65;;;3.72;;
70924;SDS011;58577;52.410;13.242;2023-02-11T18:53:32;7.65;;;3.72;;
70924;SDS011;58577;52.410;13.242;2023-02-11T18:56:18;5.85;;;3.60;;